Time;durP1;ratioP1;P1;durP2;ratioP2;P2;SDS_P1;SDS_P2;PMS_P1;PMS_P2;Temp;Humidity;BMP_temperature;BMP_pressure;BME280_temperature;BME280_humidity;BME280_pressure;Samples;Min_cycle;Max_cycle;Signal;HPM_P1;HPM_P2
2023/03/27 00:02:28;;;;;;;3.70;2.55;;;;;;;;;;4982975;28;20072;-47
2023/03/27 00:04:55;;;;;;;;;;;;;;;;;;4984740;28;20228;-47
2023/03/27 00:07:23;;;;;;;3.33;2.05;;;;;;;;;;4985133;28;19928;-46
2023/03/27 00:09:56;;;;;;;4.93;2.20;;;;;;;;;;4985688;28;20425;-50
2023/03/27 00:12:23;;;;;;;;;;;;;;;;;;4987822;28;20068;-49
2023/03/27 00:14:57;;;;;;;7.43;2.30;;;;;;;;;;4986924;28;19929;-49
2023/03/27 00:17:24;;;;;;;6.22;2.20;;;;;;;;;;4985193;28;20145;-64
2023/03/27 00:19:52;;;;;;;7.00;2.40;;;;;;;;;;4984439;28;20046;-61
2023/03/27 00:22:28;;;;;;;6.28;2.33;;;;;;;;;;4983926;28;20514;-60
2023/03/27 00:24:56;;;;;;;3.33;2.20;;;;;;;;;;4983503;28;20082;-61
2023/03/27 00:27:36;;;;;;;3.42;2.30;;;;;;;;;;4977495;28;20054;-61
2023/03/27 00:30:10;;;;;;;4.45;2.42;;;;;;;;;;4971520;28;20062;-60
2023/03/27 00:32:44;;;;;;;4.05;2.67;;;;;;;;;;4973651;28;20054;-59
2023/03/27 00:35:13;;;;;;;3.55;2.30;;;;;;;;;;4975148;28;20410;-49
2023/03/27 00:37:40;;;;;;;5.07;2.17;;;;;;;;;;4969215;28;20053;-52
2023/03/27 00:40:17;;;;;;;5.30;2.55;;;;;;;;;;4970928;28;20138;-49
2023/03/27 00:42:45;;;;;;;4.85;3.22;;;;;;;;;;4977197;28;20065;-50
2023/03/27 00:45:21;;;;;;;5.25;2.58;;;;;;;;;;4970589;28;20054;-64
2023/03/27 00:47:52;;;;;;;6.22;3.08;;;;;;;;;;4967608;28;20051;-60
2023/03/27 00:50:32;;;;;;;4.20;2.72;;;;;;;;;;4973815;28;20050;-61
2023/03/27 00:53:01;;;;;;;4.32;2.70;;;;;;;;;;4968835;28;20141;-58
2023/03/27 00:55:41;;;;;;;5.05;2.20;;;;;;;;;;4968206;28;20086;-60
2023/03/27 00:58:18;;;;;;;3.90;2.55;;;;;;;;;;4967893;28;20186;-61
2023/03/27 01:00:46;;;;;;;6.13;2.70;;;;;;;;;;4970627;28;20054;-58
2023/03/27 01:03:21;;;;;;;4.68;2.72;;;;;;;;;;4970783;28;20100;-59
2023/03/27 01:05:58;;;;;;;5.00;2.67;;;;;;;;;;4971558;28;20494;-53
2023/03/27 01:08:32;;;;;;;4.95;2.67;;;;;;;;;;4968495;28;20051;-53
2023/03/27 01:11:06;;;;;;;8.93;2.58;;;;;;;;;;4965809;28;20051;-51
2023/03/27 01:13:40;;;;;;;5.60;2.50;;;;;;;;;;4970628;28;20088;-46
2023/03/27 01:16:07;;;;;;;5.97;2.83;;;;;;;;;;4972845;28;20503;-64
2023/03/27 01:18:53;;;;;;;4.78;2.75;;;;;;;;;;4967702;28;20062;-45
2023/03/27 01:21:42;;;;;;;4.00;2.45;;;;;;;;;;4972813;28;20058;-48
2023/03/27 01:24:10;;;;;;;6.28;3.40;;;;;;;;;;4972062;28;20054;-47
2023/03/27 01:26:58;;;;;;;4.47;2.97;;;;;;;;;;4971335;28;20425;-45
2023/03/27 01:29:32;;;;;;;4.72;2.75;;;;;;;;;;4989361;28;20060;-46
2023/03/27 01:32:14;;;;;;;5.28;2.55;;;;;;;;;;4988337;28;20050;-55
2023/03/27 01:34:52;;;;;;;7.10;2.97;;;;;;;;;;4988732;28;20059;-58
2023/03/27 01:37:49;;;;;;;6.17;2.60;;;;;;;;;;4987027;28;20136;-53
2023/03/27 01:40:29;;;;;;;6.65;2.92;;;;;;;;;;4986071;28;20057;-55
2023/03/27 01:43:09;;;;;;;4.50;2.30;;;;;;;;;;4989572;28;20133;-55
2023/03/27 01:45:36;;;;;;;6.73;2.50;;;;;;;;;;4988027;28;20060;-64
2023/03/27 01:48:13;;;;;;;3.80;2.75;;;;;;;;;;4985025;28;20054;-64
2023/03/27 01:50:48;;;;;;;4.43;2.60;;;;;;;;;;4988535;28;20062;-64
2023/03/27 01:53:26;;;;;;;5.43;2.42;;;;;;;;;;4986450;28;20421;-64
2023/03/27 01:55:57;;;;;;;4.68;2.63;;;;;;;;;;4988770;28;20137;-64
2023/03/27 01:58:34;;;;;;;4.60;2.47;;;;;;;;;;4984444;28;20054;-64
2023/03/27 02:01:02;;;;;;;4.87;2.70;;;;;;;;;;4991150;28;20061;-52
2023/03/27 02:03:40;;;;;;;4.23;2.40;;;;;;;;;;4991432;28;20066;-49
2023/03/27 02:06:16;;;;;;;4.03;2.70;;;;;;;;;;4989257;28;20156;-51
2023/03/27 02:09:03;;;;;;;5.43;2.90;;;;;;;;;;4984901;28;20065;-52
2023/03/27 02:11:40;;;;;;;7.03;2.90;;;;;;;;;;4984940;28;20064;-60
2023/03/27 02:14:13;;;;;;;5.70;2.97;;;;;;;;;;4988563;28;20053;-52
2023/03/27 02:16:49;;;;;;;5.60;2.90;;;;;;;;;;4987494;28;20062;-50
2023/03/27 02:19:19;;;;;;;5.17;3.00;;;;;;;;;;4986290;28;20085;-52
2023/03/27 02:21:53;;;;;;;13.32;2.85;;;;;;;;;;4986653;28;20434;-50
2023/03/27 02:24:21;;;;;;;;;;;;;;;;;;4990042;28;20630;-55
2023/03/27 02:27:05;;;;;;;6.43;2.63;;;;;;;;;;4985476;28;19930;-51
2023/03/27 02:29:50;;;;;;;6.87;2.57;;;;;;;;;;4988280;28;20150;-48
2023/03/27 02:32:20;;;;;;;6.17;2.97;;;;;;;;;;4988612;28;20069;-52
2023/03/27 02:35:01;;;;;;;4.07;2.53;;;;;;;;;;4988631;28;20050;-55
2023/03/27 02:37:29;;;;;;;5.17;2.87;;;;;;;;;;4990527;28;20042;-50
2023/03/27 02:40:13;;;;;;;4.00;2.50;;;;;;;;;;4990164;28;20047;-52
2023/03/27 02:42:47;;;;;;;5.17;2.60;;;;;;;;;;4967233;28;20609;-51
2023/03/27 02:45:25;;;;;;;5.57;2.67;;;;;;;;;;4987131;28;20053;-52
2023/03/27 02:47:55;;;;;;;3.47;2.37;;;;;;;;;;4985910;28;20503;-60
2023/03/27 02:50:40;;;;;;;7.30;2.67;;;;;;;;;;4988223;28;20085;-53
2023/03/27 02:53:10;;;;;;;5.40;2.90;;;;;;;;;;4990112;28;20165;-64
2023/03/27 02:55:55;;;;;;;5.70;2.50;;;;;;;;;;4989572;28;20057;-64
2023/03/27 02:58:29;;;;;;;4.87;2.80;;;;;;;;;;4986858;28;20060;-64
2023/03/27 03:01:03;;;;;;;5.00;2.83;;;;;;;;;;4985933;28;20068;-64
2023/03/27 03:03:33;;;;;;;4.17;2.53;;;;;;;;;;4985380;28;20180;-64
2023/03/27 03:06:09;;;;;;;5.37;2.60;;;;;;;;;;4987547;28;20133;-63
2023/03/27 03:08:37;;;;;;;5.40;2.80;;;;;;;;;;4984875;28;20054;-45
2023/03/27 03:11:13;;;;;;;4.13;2.43;;;;;;;;;;4991263;28;20137;-53
2023/03/27 03:13:40;;;;;;;6.30;3.20;;;;;;;;;;4987063;28;20086;-49
2023/03/27 03:16:08;;;;;;;3.53;2.50;;;;;;;;;;4987881;28;20216;-50
2023/03/27 03:18:42;;;;;;;5.13;2.53;;;;;;;;;;4991320;28;20057;-54
2023/03/27 03:21:09;;;;;;;4.32;2.50;;;;;;;;;;4990563;28;20052;-53
2023/03/27 03:23:44;;;;;;;5.80;2.83;;;;;;;;;;4984244;28;20085;-53
2023/03/27 03:26:25;;;;;;;3.23;2.53;;;;;;;;;;4988796;28;20569;-55
2023/03/27 03:29:06;;;;;;;4.67;2.43;;;;;;;;;;4984767;28;20737;-45
2023/03/27 03:31:42;;;;;;;5.10;2.67;;;;;;;;;;4985157;28;20133;-47
2023/03/27 03:34:18;;;;;;;3.47;2.27;;;;;;;;;;4988823;28;20077;-45
2023/03/27 03:36:47;;;;;;;5.30;2.70;;;;;;;;;;4986148;28;20125;-44
2023/03/27 03:39:16;;;;;;;11.77;2.87;;;;;;;;;;4983103;28;20116;-48
2023/03/27 03:41:50;;;;;;;5.97;2.80;;;;;;;;;;4980642;28;20043;-47
2023/03/27 03:44:17;;;;;;;;;;;;;;;;;;4989469;28;20053;-48
2023/03/27 03:46:51;;;;;;;4.73;2.77;;;;;;;;;;4982147;28;20040;-57
2023/03/27 03:49:18;;;;;;;5.60;3.13;;;;;;;;;;4986951;28;20440;-52
2023/03/27 03:51:52;;;;;;;4.47;2.70;;;;;;;;;;4987343;28;20054;-53
2023/03/27 03:54:31;;;;;;;5.20;2.50;;;;;;;;;;4982973;28;20157;-50
2023/03/27 03:57:06;;;;;;;3.87;2.60;;;;;;;;;;4987444;28;20418;-50
2023/03/27 03:59:34;;;;;;;3.37;2.07;;;;;;;;;;4986195;28;20066;-53
2023/03/27 04:02:01;;;;;;;;;;;;;;;;;;4985650;28;20059;-46
2023/03/27 04:04:35;;;;;;;6.93;3.97;;;;;;;;;;4976162;28;19936;-54
2023/03/27 04:07:05;;;;;;;;;;;;;;;;;;4982087;28;20050;-54
2023/03/27 04:09:32;;;;;;;12.03;4.63;;;;;;;;;;4987168;28;19929;-56
2023/03/27 04:12:06;;;;;;;8.77;4.77;;;;;;;;;;4990280;28;20182;-52
2023/03/27 04:14:33;;;;;;;;;;;;;;;;;;4984184;28;20698;-53
2023/03/27 04:17:07;;;;;;;8.17;3.23;;;;;;;;;;4985716;28;20297;-54
2023/03/27 04:19:34;;;;;;;;;;;;;;;;;;4977444;28;20677;-63
2023/03/27 04:22:02;;;;;;;4.30;3.20;;;;;;;;;;4981264;28;20024;-46
2023/03/27 04:24:36;;;;;;;5.67;2.60;;;;;;;;;;4979857;28;20456;-54
2023/03/27 04:27:04;;;;;;;4.60;2.57;;;;;;;;;;4979538;28;20134;-55
2023/03/27 04:29:46;;;;;;;11.67;3.13;;;;;;;;;;4980961;28;20105;-50
2023/03/27 04:32:17;;;;;;;5.07;2.70;;;;;;;;;;4967785;28;20144;-50
2023/03/27 04:34:53;;;;;;;7.40;2.80;;;;;;;;;;4982983;28;20108;-53
2023/03/27 04:37:21;;;;;;;4.47;2.83;;;;;;;;;;4982360;28;20046;-53
2023/03/27 04:39:51;;;;;;;8.30;2.90;;;;;;;;;;4978629;28;20058;-52
2023/03/27 04:42:26;;;;;;;5.40;2.80;;;;;;;;;;4976656;28;20110;-55
2023/03/27 04:44:53;;;;;;;9.70;2.70;;;;;;;;;;4972569;28;20058;-54
2023/03/27 04:47:27;;;;;;;4.87;2.37;;;;;;;;;;4957191;28;20142;-53
2023/03/27 04:49:57;;;;;;;;;;;;;;;;;;4971315;28;20743;-50
2023/03/27 04:52:24;;;;;;;5.67;3.10;;;;;;;;;;4973207;28;20020;-48
2023/03/27 04:55:00;;;;;;;7.90;2.60;;;;;;;;;;4972075;28;20046;-51
2023/03/27 04:57:29;;;;;;;10.43;2.53;;;;;;;;;;4976788;28;20509;-47
2023/03/27 05:00:14;;;;;;;6.40;2.50;;;;;;;;;;4985225;28;20052;-51
2023/03/27 05:02:42;;;;;;;3.63;2.20;;;;;;;;;;4984486;28;20073;-52
2023/03/27 05:05:15;;;;;;;3.33;2.43;;;;;;;;;;4989132;28;20498;-47
2023/03/27 05:07:46;;;;;;;5.53;2.93;;;;;;;;;;4968422;28;20054;-50
2023/03/27 05:10:16;;;;;;;5.70;3.00;;;;;;;;;;4986998;28;20058;-52
2023/03/27 05:12:50;;;;;;;5.37;3.07;;;;;;;;;;4986061;28;20064;-47
2023/03/27 05:15:17;;;;;;;6.37;3.03;;;;;;;;;;4988344;28;20120;-50
2023/03/27 05:17:54;;;;;;;5.47;2.73;;;;;;;;;;4983769;28;20046;-50
2023/03/27 05:20:22;;;;;;;5.03;2.87;;;;;;;;;;4986219;28;20528;-51
2023/03/27 05:22:52;;;;;;;4.82;2.90;;;;;;;;;;4991000;28;20162;-47
2023/03/27 05:25:26;;;;;;;12.60;3.30;;;;;;;;;;4991125;28;20054;-52
2023/03/27 05:28:00;;;;;;;13.27;3.20;;;;;;;;;;4987311;28;20533;-49
2023/03/27 05:30:41;;;;;;;4.57;2.53;;;;;;;;;;4989626;28;20046;-51
2023/03/27 05:33:08;;;;;;;6.60;2.97;;;;;;;;;;4988287;28;20062;-46
2023/03/27 05:35:45;;;;;;;5.67;2.93;;;;;;;;;;4989270;28;20153;-48
2023/03/27 05:38:13;;;;;;;10.87;3.10;;;;;;;;;;4970363;28;20105;-45
2023/03/27 05:40:40;;;;;;;7.22;2.80;;;;;;;;;;4990215;28;20054;-45
2023/03/27 05:43:14;;;;;;;11.80;3.67;;;;;;;;;;4991778;28;20060;-56
2023/03/27 05:45:41;;;;;;;6.43;3.00;;;;;;;;;;4988372;28;20589;-63
2023/03/27 05:48:08;;;;;;;;;;;;;;;;;;4985595;28;20135;-51
2023/03/27 05:50:42;;;;;;;6.43;2.80;;;;;;;;;;4991020;28;19922;-49
2023/03/27 05:53:10;;;;;;;4.78;2.75;;;;;;;;;;4987551;28;20429;-49
2023/03/27 05:55:44;;;;;;;5.17;3.07;;;;;;;;;;4985860;28;20092;-50
2023/03/27 05:58:12;;;;;;;8.07;2.78;;;;;;;;;;4985098;28;20069;-49
2023/03/27 06:00:43;;;;;;;4.83;2.80;;;;;;;;;;4989040;28;20054;-48
2023/03/27 06:03:18;;;;;;;;;;;;;;;;;;4987600;28;20328;-55
2023/03/27 06:05:48;;;;;;;5.43;2.80;;;;;;;;;;4984643;28;19926;-53
2023/03/27 06:08:22;;;;;;;6.60;3.20;;;;;;;;;;4986747;28;20050;-51
2023/03/27 06:10:49;;;;;;;;;;;;;;;;;;4986877;28;20060;-53
2023/03/27 06:13:17;;;;;;;4.00;2.60;;;;;;;;;;4990053;28;19953;-60
2023/03/27 06:15:53;;;;;;;4.90;2.50;;;;;;;;;;4987199;28;20514;-50
2023/03/27 06:18:20;;;;;;;6.53;2.67;;;;;;;;;;4988830;28;20054;-53
2023/03/27 06:20:54;;;;;;;4.50;2.63;;;;;;;;;;4986788;28;20050;-49
2023/03/27 06:23:22;;;;;;;7.10;3.07;;;;;;;;;;4984371;28;20139;-51
2023/03/27 06:25:50;;;;;;;5.15;2.53;;;;;;;;;;4988303;28;20144;-53
2023/03/27 06:28:30;;;;;;;5.60;2.57;;;;;;;;;;4987902;28;20058;-48
2023/03/27 06:31:04;;;;;;;4.57;2.67;;;;;;;;;;4988842;28;20606;-53
2023/03/27 06:33:39;;;;;;;5.47;2.90;;;;;;;;;;4984958;28;20058;-51
2023/03/27 06:36:07;;;;;;;5.32;2.90;;;;;;;;;;4988318;28;20108;-54
2023/03/27 06:38:36;;;;;;;5.00;2.53;;;;;;;;;;4984447;28;20056;-54
2023/03/27 06:41:09;;;;;;;6.67;2.63;;;;;;;;;;4990503;28;20069;-63
2023/03/27 06:43:36;;;;;;;5.88;2.50;;;;;;;;;;4988744;28;20137;-55
2023/03/27 06:46:11;;;;;;;9.93;3.03;;;;;;;;;;4987911;28;20060;-56
2023/03/27 06:48:38;;;;;;;8.13;2.75;;;;;;;;;;4989739;28;20054;-51
2023/03/27 06:51:06;;;;;;;4.95;2.97;;;;;;;;;;4986228;28;20087;-51
2023/03/27 06:53:40;;;;;;;7.07;3.80;;;;;;;;;;4988098;28;20428;-53
2023/03/27 06:56:08;;;;;;;;;;;;;;;;;;4991229;28;20687;-55
2023/03/27 06:58:41;;;;;;;8.93;3.90;;;;;;;;;;4984699;28;19926;-56
2023/03/27 07:01:08;;;;;;;8.40;4.32;;;;;;;;;;4987927;28;20061;-54
2023/03/27 07:03:36;;;;;;;7.00;3.85;;;;;;;;;;4988007;28;20073;-55
2023/03/27 07:06:09;;;;;;;9.13;4.03;;;;;;;;;;4988738;28;20045;-55
2023/03/27 07:08:36;;;;;;;5.70;3.15;;;;;;;;;;4984727;28;20345;-65
2023/03/27 07:11:12;;;;;;;7.57;3.58;;;;;;;;;;4988813;28;20047;-48
2023/03/27 07:13:40;;;;;;;5.85;3.28;;;;;;;;;;4986769;28;20062;-58
2023/03/27 07:16:07;;;;;;;;;;;;;;;;;;4987223;28;20076;-56
2023/03/27 07:18:41;;;;;;;11.38;3.17;;;;;;;;;;4984375;28;19976;-57
2023/03/27 07:21:08;;;;;;;;;;;;;;;;;;4983973;28;20057;-57
2023/03/27 07:23:36;;;;;;;6.10;3.35;;;;;;;;;;4982739;28;19970;-59
2023/03/27 07:26:09;;;;;;;3.60;2.38;;;;;;;;;;4982110;28;20520;-59
2023/03/27 07:28:43;;;;;;;5.47;2.60;;;;;;;;;;4990500;28;20054;-51
2023/03/27 07:31:17;;;;;;;4.35;2.40;;;;;;;;;;4986641;28;20053;-53
2023/03/27 07:33:47;;;;;;;4.80;2.70;;;;;;;;;;4984519;28;20064;-57
2023/03/27 07:36:15;;;;;;;3.60;2.25;;;;;;;;;;4985720;28;20108;-50
2023/03/27 07:38:48;;;;;;;6.82;2.78;;;;;;;;;;4984730;28;20494;-54
2023/03/27 07:41:15;;;;;;;4.75;2.65;;;;;;;;;;4986386;28;20568;-54
2023/03/27 07:43:49;;;;;;;4.68;2.60;;;;;;;;;;4984501;28;20065;-56
2023/03/27 07:46:16;;;;;;;5.50;3.22;;;;;;;;;;4988116;28;20583;-53
2023/03/27 07:48:44;;;;;;;3.70;2.60;;;;;;;;;;4985871;28;20584;-54
2023/03/27 07:51:18;;;;;;;6.65;2.50;;;;;;;;;;4986727;28;20054;-54
2023/03/27 07:53:46;;;;;;;3.45;2.40;;;;;;;;;;4985036;28;20054;-52
2023/03/27 07:56:13;;;;;;;4.03;2.30;;;;;;;;;;4988495;28;20050;-68
2023/03/27 07:58:47;;;;;;;4.22;2.40;;;;;;;;;;4983635;28;20057;-68
2023/03/27 08:01:15;;;;;;;3.97;2.15;;;;;;;;;;4984632;28;20826;-68
2023/03/27 08:03:48;;;;;;;6.88;2.40;;;;;;;;;;4984316;28;20113;-68
2023/03/27 08:06:16;;;;;;;12.07;2.10;;;;;;;;;;4965491;28;20141;-67
2023/03/27 08:08:43;;;;;;;3.75;2.15;;;;;;;;;;4982757;28;20058;-68
2023/03/27 08:11:17;;;;;;;2.17;1.40;;;;;;;;;;4983894;28;20144;-54
2023/03/27 08:13:57;;;;;;;3.70;1.65;;;;;;;;;;4983555;28;20455;-48
2023/03/27 08:16:31;;;;;;;6.10;2.10;;;;;;;;;;4985880;28;20046;-48
2023/03/27 08:19:00;;;;;;;4.22;2.38;;;;;;;;;;4982963;28;20133;-47
2023/03/27 08:21:35;;;;;;;2.50;1.55;;;;;;;;;;4984648;28;20120;-49
2023/03/27 08:24:08;;;;;;;2.05;1.00;;;;;;;;;;4987916;28;20141;-53
2023/03/27 08:26:35;;;;;;;4.85;1.75;;;;;;;;;;4982361;28;20059;-54
2023/03/27 08:29:16;;;;;;;2.63;1.60;;;;;;;;;;4986476;28;20137;-58
2023/03/27 08:31:43;;;;;;;2.00;1.35;;;;;;;;;;4984786;28;20140;-61
2023/03/27 08:34:17;;;;;;;1.83;1.13;;;;;;;;;;4987713;28;20054;-68
2023/03/27 08:36:45;;;;;;;4.55;1.50;;;;;;;;;;4982694;28;20141;-68
2023/03/27 08:39:12;;;;;;;1.35;1.17;;;;;;;;;;4986801;28;20049;-68
2023/03/27 08:41:54;;;;;;;1.42;1.02;;;;;;;;;;4983564;28;20410;-68
2023/03/27 08:44:22;;;;;;;3.47;1.45;;;;;;;;;;4986955;28;20560;-68
2023/03/27 08:46:56;;;;;;;1.60;1.10;;;;;;;;;;4985519;28;20046;-68
2023/03/27 08:49:25;;;;;;;3.38;1.30;;;;;;;;;;4985318;28;20433;-55
2023/03/27 08:52:01;;;;;;;1.13;1.02;;;;;;;;;;4984092;28;20050;-56
2023/03/27 08:54:30;;;;;;;2.15;1.25;;;;;;;;;;4985852;28;20137;-55
2023/03/27 08:57:14;;;;;;;4.22;1.75;;;;;;;;;;4985696;28;20046;-55
2023/03/27 08:59:42;;;;;;;2.38;1.50;;;;;;;;;;4972195;28;20062;-54
2023/03/27 09:02:34;;;;;;;1.83;1.23;;;;;;;;;;4993894;28;20057;-54
2023/03/27 09:05:15;;;;;;;1.48;1.10;;;;;;;;;;4990472;28;20597;-53
2023/03/27 09:07:42;;;;;;;1.45;1.15;;;;;;;;;;4986561;28;20552;-56
2023/03/27 09:10:16;;;;;;;2.60;1.20;;;;;;;;;;4986893;28;20050;-54
2023/03/27 09:12:44;;;;;;;3.08;1.20;;;;;;;;;;4986721;28;20069;-56
2023/03/27 09:15:21;;;;;;;3.10;1.55;;;;;;;;;;4988667;28;20518;-54
2023/03/27 09:17:50;;;;;;;2.05;1.08;;;;;;;;;;4990775;28;20178;-55
2023/03/27 09:20:32;;;;;;;3.10;1.30;;;;;;;;;;4989706;28;20057;-55
2023/03/27 09:23:09;;;;;;;1.83;1.35;;;;;;;;;;4991166;28;20144;-57
2023/03/27 09:25:56;;;;;;;1.67;1.10;;;;;;;;;;4990526;28;20141;-70
2023/03/27 09:28:34;;;;;;;2.20;1.27;;;;;;;;;;4988879;28;20073;-54
2023/03/27 09:31:23;;;;;;;1.58;1.10;;;;;;;;;;4991462;28;20050;-54
2023/03/27 09:33:51;;;;;;;2.10;1.15;;;;;;;;;;4986206;28;20046;-54
2023/03/27 09:36:25;;;;;;;2.40;1.30;;;;;;;;;;4983298;28;20594;-54
2023/03/27 09:38:57;;;;;;;2.55;1.10;;;;;;;;;;4982328;28;20050;-55
2023/03/27 09:41:34;;;;;;;3.03;1.08;;;;;;;;;;4989976;28;20129;-50
2023/03/27 09:44:12;;;;;;;2.58;1.10;;;;;;;;;;4992371;28;20608;-51
2023/03/27 09:46:48;;;;;;;1.80;1.17;;;;;;;;;;4987587;28;20064;-54
2023/03/27 09:49:19;;;;;;;1.40;1.10;;;;;;;;;;4986012;28;20057;-54
2023/03/27 09:51:55;;;;;;;1.27;0.88;;;;;;;;;;4989594;28;20069;-55
2023/03/27 09:54:23;;;;;;;1.38;1.00;;;;;;;;;;4985850;28;20058;-60
2023/03/27 09:56:57;;;;;;;1.15;1.02;;;;;;;;;;4988205;28;20065;-48
2023/03/27 09:59:29;;;;;;;5.45;1.38;;;;;;;;;;4989444;28;20046;-63
2023/03/27 10:02:21;;;;;;;1.95;1.20;;;;;;;;;;4991351;28;20071;-63
2023/03/27 10:05:14;;;;;;;1.15;0.93;;;;;;;;;;4985874;28;20064;-63
2023/03/27 10:07:49;;;;;;;1.38;1.10;;;;;;;;;;4986533;28;20054;-63
2023/03/27 10:10:18;;;;;;;2.40;1.10;;;;;;;;;;4985868;28;20270;-63
2023/03/27 10:12:57;;;;;;;3.72;1.27;;;;;;;;;;4988844;28;20054;-60
2023/03/27 10:15:37;;;;;;;1.98;1.10;;;;;;;;;;4990744;28;20060;-61
2023/03/27 10:18:23;;;;;;;2.00;1.00;;;;;;;;;;4988754;28;20494;-62
2023/03/27 10:20:58;;;;;;;1.38;1.10;;;;;;;;;;4988577;28;20082;-61
2023/03/27 10:23:42;;;;;;;0.82;0.80;;;;;;;;;;4990359;28;20602;-68
2023/03/27 10:26:24;;;;;;;1.50;0.95;;;;;;;;;;4970510;28;20536;-63
2023/03/27 10:29:00;;;;;;;0.98;0.77;;;;;;;;;;4987500;28;20513;-63
2023/03/27 10:31:36;;;;;;;2.55;1.10;;;;;;;;;;4990180;28;20046;-63
2023/03/27 10:34:05;;;;;;;2.83;1.25;;;;;;;;;;4985977;28;20137;-63
2023/03/27 10:36:36;;;;;;;4.00;1.40;;;;;;;;;;4990291;28;20124;-63
2023/03/27 10:39:12;;;;;;;1.45;0.93;;;;;;;;;;4987227;28;20055;-64
2023/03/27 10:41:47;;;;;;;4.10;2.10;;;;;;;;;;4989742;28;20498;-61
2023/03/27 10:44:24;;;;;;;2.28;1.40;;;;;;;;;;4990394;28;20464;-62
2023/03/27 10:46:58;;;;;;;2.83;1.20;;;;;;;;;;4985701;28;20054;-61
2023/03/27 10:49:39;;;;;;;1.85;1.40;;;;;;;;;;4987166;28;21517;-62
2023/03/27 10:52:17;;;;;;;2.63;1.60;;;;;;;;;;4986471;28;20054;-62
2023/03/27 10:54:49;;;;;;;4.47;1.50;;;;;;;;;;4987925;28;20054;-62
2023/03/27 10:57:33;;;;;;;1.88;1.10;;;;;;;;;;4980044;28;20061;-52
2023/03/27 11:00:12;;;;;;;2.78;1.30;;;;;;;;;;4986316;28;20138;-58
2023/03/27 11:03:05;;;;;;;5.82;1.25;;;;;;;;;;4987359;28;20050;-60
2023/03/27 11:05:36;;;;;;;4.63;1.10;;;;;;;;;;4984254;28;20057;-59
2023/03/27 11:08:27;;;;;;;1.88;1.33;;;;;;;;;;4986192;28;20058;-59
2023/03/27 11:10:56;;;;;;;2.25;1.42;;;;;;;;;;4984319;28;20085;-59
2023/03/27 11:13:36;;;;;;;2.00;1.40;;;;;;;;;;4986764;28;20501;-58
2023/03/27 11:16:13;;;;;;;3.10;1.52;;;;;;;;;;4989309;28;20061;-62
2023/03/27 11:18:44;;;;;;;4.32;1.60;;;;;;;;;;4985386;28;20050;-54
2023/03/27 11:21:40;;;;;;;2.65;1.42;;;;;;;;;;4982593;28;20062;-56
2023/03/27 11:24:16;;;;;;;3.42;1.60;;;;;;;;;;4985364;28;20054;-56
2023/03/27 11:26:50;;;;;;;3.25;1.48;;;;;;;;;;4987100;28;20129;-58
2023/03/27 11:29:30;;;;;;;3.22;1.55;;;;;;;;;;4988850;28;20693;-56
2023/03/27 11:32:32;;;;;;;2.45;1.35;;;;;;;;;;4985414;28;20072;-56
2023/03/27 11:35:07;;;;;;;1.95;1.17;;;;;;;;;;4984516;28;20575;-58
2023/03/27 11:37:51;;;;;;;1.30;1.10;;;;;;;;;;4982145;28;20566;-57
2023/03/27 11:40:27;;;;;;;1.80;1.35;;;;;;;;;;4982741;28;20053;-53
2023/03/27 11:43:01;;;;;;;2.53;0.93;;;;;;;;;;4984959;28;20505;-58
2023/03/27 11:45:28;;;;;;;;;;;;;;;;;;4987602;28;20060;-62
2023/03/27 11:48:02;;;;;;;2.40;1.15;;;;;;;;;;4983320;28;19930;-55
2023/03/27 11:50:37;;;;;;;1.15;1.05;;;;;;;;;;4987153;28;20055;-56
2023/03/27 11:53:15;;;;;;;1.13;1.02;;;;;;;;;;4986896;28;20065;-55
2023/03/27 11:55:42;;;;;;;2.00;1.08;;;;;;;;;;4983015;28;20169;-55
2023/03/27 11:58:09;;;;;;;2.65;1.08;;;;;;;;;;4986674;28;20097;-54
2023/03/27 12:00:55;;;;;;;1.83;1.20;;;;;;;;;;4984132;28;20080;-55
2023/03/27 12:03:27;;;;;;;2.63;1.10;;;;;;;;;;4986852;28;20601;-62
2023/03/27 12:06:06;;;;;;;3.15;0.93;;;;;;;;;;4983642;28;20056;-63
2023/03/27 12:08:59;;;;;;;0.95;0.90;;;;;;;;;;4987492;28;20054;-62
2023/03/27 12:11:36;;;;;;;1.50;0.88;;;;;;;;;;4963651;28;20054;-61
2023/03/27 12:14:29;;;;;;;1.48;1.15;;;;;;;;;;4982708;28;20042;-51
2023/03/27 12:17:12;;;;;;;2.10;1.10;;;;;;;;;;4982540;28;20613;-61
2023/03/27 12:20:05;;;;;;;2.15;1.05;;;;;;;;;;4984205;28;20046;-61
2023/03/27 12:22:52;;;;;;;2.55;0.98;;;;;;;;;;4984820;28;20046;-62
2023/03/27 12:25:32;;;;;;;0.95;0.80;;;;;;;;;;4985683;28;20054;-61
2023/03/27 12:28:05;;;;;;;0.80;0.80;;;;;;;;;;4984636;28;20703;-61
2023/03/27 12:31:15;;;;;;;1.25;0.90;;;;;;;;;;4975325;28;20058;-58
2023/03/27 12:33:52;;;;;;;1.48;0.82;;;;;;;;;;4982196;28;20106;-61
2023/03/27 12:36:30;;;;;;;4.72;1.10;;;;;;;;;;4986847;28;20054;-59
2023/03/27 12:38:58;;;;;;;2.42;1.15;;;;;;;;;;4988534;28;20136;-60
2023/03/27 12:41:37;;;;;;;2.67;1.13;;;;;;;;;;4988995;28;20501;-58
2023/03/27 12:44:05;;;;;;;1.25;0.93;;;;;;;;;;4987178;28;20043;-51
2023/03/27 12:46:40;;;;;;;2.60;1.00;;;;;;;;;;4986842;28;20145;-51
2023/03/27 12:49:10;;;;;;;1.55;1.00;;;;;;;;;;4987943;28;20054;-48
2023/03/27 12:51:50;;;;;;;5.10;1.50;;;;;;;;;;4986693;28;20490;-49
2023/03/27 12:54:26;;;;;;;2.67;1.40;;;;;;;;;;4991453;28;20589;-49
2023/03/27 12:57:19;;;;;;;2.92;1.50;;;;;;;;;;4989494;28;20639;-50
2023/03/27 12:59:50;;;;;;;2.20;1.17;;;;;;;;;;4988262;28;20440;-63
2023/03/27 13:02:46;;;;;;;3.92;1.70;;;;;;;;;;4985821;28;20590;-62
2023/03/27 13:05:21;;;;;;;3.38;1.50;;;;;;;;;;4962781;28;20069;-63
2023/03/27 13:07:55;;;;;;;4.18;1.50;;;;;;;;;;4986384;28;20424;-62
2023/03/27 13:10:23;;;;;;;3.22;1.25;;;;;;;;;;4985519;28;20137;-59
2023/03/27 13:12:50;;;;;;;;;;;;;;;;;;4989851;28;20054;-66
2023/03/27 13:15:31;;;;;;;4.85;1.58;;;;;;;;;;4986937;28;19925;-66
2023/03/27 13:18:17;;;;;;;2.75;1.30;;;;;;;;;;4991031;28;20046;-66
2023/03/27 13:20:52;;;;;;;2.00;1.35;;;;;;;;;;4984028;28;20054;-67
2023/03/27 13:23:25;;;;;;;2.50;1.27;;;;;;;;;;4967743;28;20050;-66
2023/03/27 13:25:59;;;;;;;3.95;1.42;;;;;;;;;;4985573;28;20051;-66
2023/03/27 13:28:30;;;;;;;2.35;1.30;;;;;;;;;;4988617;28;20478;-59
2023/03/27 13:31:04;;;;;;;1.67;1.23;;;;;;;;;;4987111;28;20082;-60
2023/03/27 13:33:34;;;;;;;1.77;1.10;;;;;;;;;;4984746;28;20050;-60
2023/03/27 13:36:16;;;;;;;2.58;1.58;;;;;;;;;;4984951;28;20057;-59
2023/03/27 13:38:48;;;;;;;2.85;1.98;;;;;;;;;;4988532;28;20120;-60
2023/03/27 13:41:43;;;;;;;2.80;1.35;;;;;;;;;;4986934;28;20060;-58
2023/03/27 13:44:23;;;;;;;2.33;1.40;;;;;;;;;;4980282;28;20132;-58
2023/03/27 13:47:06;;;;;;;3.25;1.42;;;;;;;;;;4986206;28;20145;-56
2023/03/27 13:49:53;;;;;;;1.60;1.25;;;;;;;;;;4985658;28;20085;-58
2023/03/27 13:52:48;;;;;;;6.30;1.58;;;;;;;;;;4988410;28;20730;-60
2023/03/27 13:55:18;;;;;;;3.33;1.40;;;;;;;;;;4985359;28;20093;-58
2023/03/27 13:57:55;;;;;;;1.88;1.20;;;;;;;;;;4985222;28;20444;-59
2023/03/27 14:00:32;;;;;;;1.85;1.38;;;;;;;;;;4986813;28;20058;-59
2023/03/27 14:03:10;;;;;;;1.70;1.35;;;;;;;;;;4985409;28;20133;-59
2023/03/27 14:05:47;;;;;;;1.55;1.45;;;;;;;;;;4990530;28;20551;-56
2023/03/27 14:08:24;;;;;;;2.47;1.40;;;;;;;;;;4986392;28;20096;-58
2023/03/27 14:11:16;;;;;;;2.53;1.60;;;;;;;;;;4975197;28;20042;-62
2023/03/27 14:13:46;;;;;;;2.92;1.30;;;;;;;;;;4980449;28;20466;-62
2023/03/27 14:16:23;;;;;;;3.45;1.25;;;;;;;;;;4983197;28;20054;-62
2023/03/27 14:18:56;;;;;;;2.55;1.20;;;;;;;;;;4980142;28;21339;-62
2023/03/27 14:21:48;;;;;;;2.28;1.17;;;;;;;;;;4983956;28;20058;-62
2023/03/27 14:24:26;;;;;;;2.42;1.13;;;;;;;;;;4984281;28;20056;-65
2023/03/27 14:27:00;;;;;;;1.75;1.00;;;;;;;;;;4989113;28;20133;-53
2023/03/27 14:29:40;;;;;;;1.40;1.05;;;;;;;;;;4984592;28;20054;-58
2023/03/27 14:32:19;;;;;;;3.83;1.05;;;;;;;;;;4985391;28;20050;-57
2023/03/27 14:34:52;;;;;;;1.27;1.05;;;;;;;;;;4984622;28;20062;-57
2023/03/27 14:37:29;;;;;;;1.83;1.13;;;;;;;;;;4981053;28;20054;-60
2023/03/27 14:39:57;;;;;;;3.30;1.20;;;;;;;;;;4976412;28;20054;-57
2023/03/27 14:42:31;;;;;;;1.35;1.10;;;;;;;;;;4981654;28;20050;-59
2023/03/27 14:45:08;;;;;;;2.38;1.17;;;;;;;;;;4983795;28;20070;-59
2023/03/27 14:47:42;;;;;;;1.42;1.10;;;;;;;;;;4980602;28;20169;-62
2023/03/27 14:50:13;;;;;;;3.83;1.10;;;;;;;;;;4984644;28;20460;-61
2023/03/27 14:52:40;;;;;;;1.10;1.00;;;;;;;;;;4981902;28;20069;-61
2023/03/27 14:55:17;;;;;;;2.17;1.17;;;;;;;;;;4984023;28;20073;-61
2023/03/27 14:57:47;;;;;;;1.90;1.25;;;;;;;;;;4979696;28;20053;-61
2023/03/27 15:00:23;;;;;;;2.30;1.15;;;;;;;;;;4982367;28;20058;-61
2023/03/27 15:02:51;;;;;;;1.40;1.25;;;;;;;;;;4985212;28;20137;-61
2023/03/27 15:05:24;;;;;;;5.80;1.00;;;;;;;;;;4983671;28;20053;-61
2023/03/27 15:07:53;;;;;;;2.92;1.27;;;;;;;;;;4984728;28;20471;-62
2023/03/27 15:10:28;;;;;;;3.47;1.33;;;;;;;;;;4981636;28;20443;-62
2023/03/27 15:12:56;;;;;;;2.13;1.13;;;;;;;;;;4980236;28;20508;-58
2023/03/27 15:15:29;;;;;;;5.53;1.40;;;;;;;;;;4983011;28;20097;-54
2023/03/27 15:17:58;;;;;;;5.18;1.38;;;;;;;;;;4980409;28;20058;-53
2023/03/27 15:20:36;;;;;;;2.15;1.58;;;;;;;;;;4964823;28;20058;-57
2023/03/27 15:23:12;;;;;;;3.70;1.60;;;;;;;;;;4979973;28;20077;-54
2023/03/27 15:25:54;;;;;;;1.77;1.30;;;;;;;;;;4973729;28;20068;-55
2023/03/27 15:28:48;;;;;;;2.60;1.50;;;;;;;;;;4984701;28;20136;-53
2023/03/27 15:31:24;;;;;;;2.38;1.30;;;;;;;;;;4985143;28;20538;-60
2023/03/27 15:34:15;;;;;;;2.42;1.40;;;;;;;;;;4983443;28;20112;-59